createdAt,value
2018-04-07T00:01:51.920Z,8.60
2018-04-07T00:04:21.663Z,8.70
2018-04-07T00:06:50.190Z,8.60
2018-04-07T00:09:21.149Z,8.50
2018-04-07T00:11:50.068Z,8.50
2018-04-07T00:14:17.563Z,8.50
2018-04-07T00:16:47.143Z,8.50
2018-04-07T00:19:14.856Z,8.40
2018-04-07T00:21:42.362Z,8.20
2018-04-07T00:24:11.139Z,8.30
2018-04-07T00:26:38.872Z,8.30
2018-04-07T00:29:06.378Z,8.40
2018-04-07T00:31:34.735Z,8.30
2018-04-07T00:34:04.573Z,8.30
2018-04-07T00:36:33.816Z,8.30
2018-04-07T00:39:01.405Z,8.30
2018-04-07T00:41:29.960Z,8.20
2018-04-07T00:43:58.391Z,8.20
2018-04-07T00:46:27.254Z,8.20
2018-04-07T00:48:58.742Z,8.10
2018-04-07T00:51:26.208Z,8.10
2018-04-07T00:53:58.135Z,8.10
2018-04-07T00:56:27.114Z,8.10
2018-04-07T00:58:55.868Z,8.00
2018-04-07T01:01:23.315Z,8.00
2018-04-07T01:03:50.816Z,8.00
2018-04-07T01:06:19.246Z,7.90
2018-04-07T01:08:50.384Z,7.90
2018-04-07T01:11:18.520Z,7.90
2018-04-07T01:13:47.566Z,7.80
2018-04-07T01:16:15.029Z,7.80
2018-04-07T01:18:42.456Z,7.70
2018-04-07T01:21:09.893Z,7.70
2018-04-07T01:23:37.329Z,7.60
2018-04-07T01:26:04.821Z,7.60
2018-04-07T01:28:32.241Z,7.60
2018-04-07T01:30:59.668Z,7.60
2018-04-07T01:33:27.108Z,7.60
2018-04-07T01:35:54.565Z,7.50
2018-04-07T01:38:22.008Z,7.50
2018-04-07T01:40:49.440Z,7.40
2018-04-07T01:43:18.269Z,7.40
2018-04-07T01:45:45.697Z,7.50
2018-04-07T01:48:13.175Z,7.50
2018-04-07T01:50:40.622Z,7.40
2018-04-07T01:53:08.079Z,7.40
2018-04-07T01:55:35.510Z,7.40
2018-04-07T01:58:03.341Z,7.30
2018-04-07T02:00:30.772Z,7.30
2018-04-07T02:02:58.216Z,7.20
2018-04-07T02:05:25.652Z,7.20
2018-04-07T02:07:53.080Z,7.30
2018-04-07T02:10:20.592Z,7.30
2018-04-07T02:12:48.005Z,7.20
2018-04-07T02:15:15.828Z,7.20
2018-04-07T02:17:43.257Z,7.20
2018-04-07T02:20:10.713Z,7.20
2018-04-07T02:22:38.133Z,7.20
2018-04-07T02:25:05.564Z,7.20
2018-04-07T02:27:32.996Z,7.20
2018-04-07T02:30:00.441Z,7.20
2018-04-07T02:32:27.883Z,7.20
2018-04-07T02:34:55.692Z,5.90
2018-04-07T02:37:23.134Z,5.80
2018-04-07T02:39:51.725Z,5.50
2018-04-07T02:42:19.156Z,5.10
2018-04-07T02:44:46.603Z,4.90
2018-04-07T02:47:15.112Z,4.80
2018-04-07T02:49:42.572Z,4.90
2018-04-07T02:52:10.796Z,4.70
2018-04-07T02:54:38.624Z,4.60
2018-04-07T02:57:06.052Z,4.60
2018-04-07T02:59:33.503Z,4.60
2018-04-07T03:02:00.922Z,4.60
2018-04-07T03:04:28.349Z,4.50
2018-04-07T03:06:55.792Z,4.60
2018-04-07T03:09:23.249Z,4.60
2018-04-07T03:11:50.683Z,4.70
2018-04-07T03:14:18.103Z,4.70
2018-04-07T03:16:45.527Z,4.70
2018-04-07T03:19:12.956Z,4.70
2018-04-07T03:21:40.432Z,4.70
2018-04-07T03:24:08.063Z,4.60
2018-04-07T03:26:36.288Z,4.90
2018-04-07T03:29:03.724Z,5.00
2018-04-07T03:31:31.166Z,5.20
2018-04-07T03:33:58.621Z,5.40
2018-04-07T03:36:26.054Z,5.80
2018-04-07T03:38:53.864Z,6.00
2018-04-07T03:41:21.837Z,6.00
2018-04-07T03:43:49.278Z,6.20
2018-04-07T03:46:16.740Z,6.30
2018-04-07T03:48:44.145Z,6.50
2018-04-07T03:51:11.990Z,6.60
2018-04-07T03:53:39.402Z,6.60
2018-04-07T03:56:06.847Z,6.60
2018-04-07T03:58:34.270Z,6.70
2018-04-07T04:01:01.718Z,6.60
2018-04-07T04:03:29.137Z,6.60
2018-04-07T04:05:56.577Z,6.60
2018-04-07T04:08:24.033Z,6.70
2018-04-07T04:10:52.248Z,6.70
2018-04-07T04:13:19.660Z,6.70
2018-04-07T04:15:47.111Z,6.70
2018-04-07T04:18:14.528Z,6.60
2018-04-07T04:20:42.675Z,6.60
2018-04-07T04:23:10.136Z,6.60
2018-04-07T04:25:37.584Z,6.50
2018-04-07T04:28:05.049Z,6.30
2018-04-07T04:30:33.194Z,6.00
2018-04-07T04:33:00.677Z,5.70
2018-04-07T04:35:28.120Z,5.70
2018-04-07T04:37:55.540Z,5.90
2018-04-07T04:40:23.372Z,6.00
2018-04-07T04:42:50.808Z,6.00
2018-04-07T04:45:18.267Z,6.10
2018-04-07T04:47:45.694Z,6.10
2018-04-07T04:50:13.775Z,6.00
2018-04-07T04:52:41.209Z,6.20
2018-04-07T04:55:08.652Z,6.10
2018-04-07T04:57:36.060Z,6.10
2018-04-07T05:00:03.507Z,6.10
2018-04-07T05:02:30.933Z,6.10
2018-04-07T05:04:58.762Z,6.10
2018-04-07T05:07:26.195Z,6.10
2018-04-07T05:09:53.634Z,6.20
2018-04-07T05:12:21.057Z,6.20
2018-04-07T05:14:48.886Z,6.20
2018-04-07T05:17:16.329Z,6.20
2018-04-07T05:19:43.764Z,6.30
2018-04-07T05:22:11.246Z,6.30
2018-04-07T05:24:39.021Z,6.30
2018-04-07T05:27:06.457Z,6.30
2018-04-07T05:29:33.889Z,6.40
2018-04-07T05:32:01.319Z,6.40
2018-04-07T05:34:28.754Z,6.50
2018-04-07T05:36:56.196Z,6.60
2018-04-07T05:39:26.986Z,6.70
2018-04-07T05:41:54.409Z,6.80
2018-04-07T05:44:21.845Z,6.90
2018-04-07T05:46:49.281Z,7.00
2018-04-07T05:49:16.719Z,7.00
2018-04-07T05:51:44.536Z,7.10
2018-04-07T05:54:12.046Z,7.10
2018-04-07T05:56:39.509Z,7.30
2018-04-07T05:59:06.992Z,7.30
2018-04-07T06:01:34.415Z,7.30
2018-04-07T06:04:01.860Z,7.40
2018-04-07T06:06:29.700Z,7.50
2018-04-07T06:08:57.185Z,7.50
2018-04-07T06:11:25.046Z,7.70
2018-04-07T06:13:52.894Z,7.70
2018-04-07T06:16:20.405Z,7.70
2018-04-07T06:18:47.858Z,7.80
2018-04-07T06:21:15.323Z,7.80
2018-04-07T06:23:42.762Z,7.90
2018-04-07T06:26:10.232Z,7.90
2018-04-07T06:28:37.700Z,8.00
2018-04-07T06:31:05.156Z,8.10
2018-04-07T06:33:32.593Z,8.10
2018-04-07T06:36:00.061Z,8.20
2018-04-07T06:38:27.509Z,8.30
2018-04-07T06:40:55.006Z,8.40
2018-04-07T06:43:22.450Z,8.50
2018-04-07T06:45:50.314Z,8.50
2018-04-07T06:48:17.765Z,8.60
2018-04-07T06:50:45.229Z,8.60
2018-04-07T06:53:12.680Z,8.60
2018-04-07T06:55:40.132Z,8.70
2018-04-07T06:58:07.560Z,8.70
2018-04-07T07:00:35.035Z,8.80
2018-04-07T07:03:02.825Z,8.90
2018-04-07T07:05:30.252Z,8.90
2018-04-07T07:07:57.686Z,9.00
2018-04-07T07:10:25.517Z,9.10
2018-04-07T07:12:53.749Z,9.10
2018-04-07T07:15:21.188Z,9.10
2018-04-07T07:17:48.621Z,9.10
2018-04-07T07:20:16.056Z,9.20
2018-04-07T07:22:43.498Z,9.20
2018-04-07T07:25:11.252Z,9.30
2018-04-07T07:27:38.712Z,9.40
2018-04-07T07:30:06.155Z,9.40
2018-04-07T07:32:33.608Z,9.50
2018-04-07T07:35:01.954Z,9.50
2018-04-07T07:37:29.772Z,9.60
2018-04-07T07:39:57.221Z,9.60
2018-04-07T07:42:24.664Z,9.60
2018-04-07T07:44:52.105Z,9.70
2018-04-07T07:47:19.560Z,9.90
2018-04-07T07:49:47.401Z,10.00
2018-04-07T07:52:14.859Z,10.00
2018-04-07T07:54:42.304Z,10.00
2018-04-07T07:57:09.737Z,10.10
2018-04-07T07:59:37.172Z,10.10
2018-04-07T08:02:04.666Z,10.20
2018-04-07T08:04:32.115Z,10.30
2018-04-07T08:06:59.570Z,10.30
2018-04-07T08:09:27.046Z,10.50
2018-04-07T08:11:54.501Z,10.50
2018-04-07T08:14:22.020Z,10.60
2018-04-07T08:16:49.954Z,10.70
2018-04-07T08:19:17.863Z,10.70
2018-04-07T08:21:45.353Z,10.70
2018-04-07T08:24:13.297Z,10.80
2018-04-07T08:26:40.754Z,10.80
2018-04-07T08:29:08.190Z,10.90
2018-04-07T08:31:35.646Z,11.10
2018-04-07T08:34:03.080Z,11.20
2018-04-07T08:36:30.916Z,11.30
2018-04-07T08:38:58.351Z,11.30
2018-04-07T08:41:25.788Z,11.30
2018-04-07T08:43:53.265Z,11.40
2018-04-07T08:46:20.724Z,11.50
2018-04-07T08:48:48.245Z,11.60
2018-04-07T08:51:15.634Z,11.80
2018-04-07T08:53:43.163Z,11.90
2018-04-07T08:56:10.621Z,12.00
2018-04-07T08:58:38.081Z,12.10
2018-04-07T09:01:06.622Z,12.10
2018-04-07T09:03:34.065Z,12.10
2018-04-07T09:06:01.491Z,12.20
2018-04-07T09:08:28.921Z,12.30
2018-04-07T09:10:56.357Z,12.40
2018-04-07T09:13:24.186Z,12.40
2018-04-07T09:15:51.649Z,12.40
2018-04-07T09:18:19.089Z,12.50
2018-04-07T09:20:46.528Z,12.60
2018-04-07T09:23:13.956Z,12.80
2018-04-07T09:25:41.774Z,12.90
2018-04-07T09:28:09.232Z,12.90
2018-04-07T09:30:36.648Z,13.00
2018-04-07T09:33:04.092Z,13.10
2018-04-07T09:35:32.564Z,13.20
2018-04-07T09:38:00.406Z,13.20
2018-04-07T09:40:27.841Z,13.20
2018-04-07T09:42:55.299Z,13.30
2018-04-07T09:45:22.728Z,13.40
2018-04-07T09:47:50.153Z,13.50
2018-04-07T09:50:17.586Z,13.60
2018-04-07T09:52:45.017Z,13.70
2018-04-07T09:55:12.469Z,13.80
2018-04-07T09:57:39.909Z,13.90
2018-04-07T10:00:07.328Z,14.00
2018-04-07T10:02:35.549Z,14.00
2018-04-07T10:05:18.408Z,14.10
2018-04-07T10:07:45.852Z,14.30
2018-04-07T10:10:13.332Z,14.40
2018-04-07T10:12:40.761Z,14.50
2018-04-07T10:15:08.191Z,14.50
2018-04-07T10:17:35.648Z,14.50
2018-04-07T10:20:03.178Z,14.60
2018-04-07T10:22:30.997Z,14.80
2018-04-07T10:24:58.439Z,14.80
2018-04-07T10:27:25.911Z,14.90
2018-04-07T10:29:53.395Z,15.10
2018-04-07T10:32:20.809Z,15.20
2018-04-07T10:34:48.258Z,15.20
2018-04-07T10:37:15.681Z,15.30
2018-04-07T10:39:43.523Z,15.50
2018-04-07T10:42:10.943Z,15.50
2018-04-07T10:44:38.384Z,15.50
2018-04-07T10:47:05.805Z,15.70
2018-04-07T10:49:33.666Z,15.80
2018-04-07T10:52:01.081Z,15.80
2018-04-07T10:54:28.555Z,15.70
2018-04-07T10:56:56.843Z,15.90
2018-04-07T10:59:24.473Z,16.10
2018-04-07T11:01:51.898Z,16.10
2018-04-07T11:04:19.332Z,16.10
2018-04-07T11:06:46.776Z,16.20
2018-04-07T11:09:14.204Z,16.30
2018-04-07T11:11:41.636Z,16.30
2018-04-07T11:14:09.069Z,16.30
2018-04-07T11:16:36.903Z,16.40
2018-04-07T11:19:04.326Z,16.40
2018-04-07T11:21:31.785Z,16.50
2018-04-07T11:23:59.250Z,16.50
2018-04-07T11:26:26.661Z,16.70
2018-04-07T11:28:54.101Z,16.70
2018-04-07T11:31:21.528Z,16.90
2018-04-07T11:33:48.953Z,16.90
2018-04-07T11:36:16.384Z,17.00
2018-04-07T11:38:44.218Z,17.30
2018-04-07T11:41:11.649Z,17.30
2018-04-07T11:43:39.314Z,17.30
2018-04-07T11:46:06.724Z,17.40
2018-04-07T11:48:34.160Z,17.40
2018-04-07T11:51:01.596Z,17.50
2018-04-07T11:53:29.020Z,17.60
2018-04-07T11:55:56.445Z,17.70
2018-04-07T11:58:24.268Z,18.00
2018-04-07T12:00:51.692Z,18.00
2018-04-07T12:03:19.140Z,18.00
2018-04-07T12:05:46.568Z,18.00
2018-04-07T12:08:13.996Z,18.20
2018-04-07T12:10:41.426Z,18.30
2018-04-07T12:13:08.857Z,18.40
2018-04-07T12:15:36.687Z,18.40
2018-04-07T12:18:04.116Z,18.40
2018-04-07T12:20:31.577Z,18.40
2018-04-07T12:22:59.004Z,18.50
2018-04-07T12:25:26.429Z,18.60
2018-04-07T12:27:53.875Z,18.60
2018-04-07T12:30:21.309Z,18.70
2018-04-07T12:32:48.746Z,18.70
2018-04-07T12:35:16.173Z,18.80
2018-04-07T12:37:44.026Z,19.00
2018-04-07T12:40:11.458Z,19.00
2018-04-07T12:42:38.898Z,18.90
2018-04-07T12:45:06.323Z,19.10
2018-04-07T12:47:33.786Z,19.20
2018-04-07T12:50:01.221Z,19.10
2018-04-07T12:52:28.667Z,19.10
2018-04-07T12:54:56.125Z,19.20
2018-04-07T12:57:23.558Z,19.30
2018-04-07T12:59:51.021Z,19.30
2018-04-07T13:02:18.452Z,19.30
2018-04-07T13:04:45.889Z,19.40
2018-04-07T13:07:13.329Z,19.50
2018-04-07T13:09:40.752Z,19.60
2018-04-07T13:12:08.189Z,19.60
2018-04-07T13:14:35.663Z,19.70
2018-04-07T13:17:03.084Z,19.60
2018-04-07T13:19:30.565Z,19.60
2018-04-07T13:21:58.006Z,19.70
2018-04-07T13:24:25.429Z,19.70
2018-04-07T13:26:52.874Z,20.00
2018-04-07T13:29:20.304Z,20.00
2018-04-07T13:31:47.751Z,20.10
2018-04-07T13:34:15.179Z,20.10
2018-04-07T14:06:30.650Z,20.20
2018-04-07T14:08:58.091Z,20.30
2018-04-07T14:11:27.442Z,20.50
2018-04-07T14:15:35.578Z,20.80
2018-04-07T14:18:04.166Z,20.80
2018-04-07T14:20:32.077Z,20.90
2018-04-07T14:37:24.713Z,21.40
2018-04-07T15:02:21.550Z,21.80
2018-04-07T15:04:56.695Z,21.90
2018-04-07T15:07:25.557Z,21.90
2018-04-07T15:10:02.528Z,21.90
2018-04-07T15:12:34.127Z,21.90
2018-04-07T15:15:03.625Z,21.80
2018-04-07T15:17:32.493Z,21.80
2018-04-07T15:20:13.148Z,21.80
2018-04-07T15:22:40.612Z,21.90
2018-04-07T15:25:15.837Z,21.90
2018-04-07T15:27:43.294Z,22.00
2018-04-07T15:30:10.768Z,22.00
2018-04-07T15:32:38.227Z,22.00
2018-04-07T15:35:05.681Z,22.10
2018-04-07T15:37:33.146Z,22.20
2018-04-07T15:40:00.569Z,22.20
2018-04-07T15:42:27.995Z,22.20
2018-04-07T15:44:55.442Z,22.20
2018-04-07T15:47:23.261Z,22.20
2018-04-07T15:49:50.708Z,22.20
2018-04-07T15:52:18.140Z,22.30
2018-04-07T15:54:45.564Z,22.30
2018-04-07T15:57:13.398Z,22.10
2018-04-07T15:59:40.831Z,22.10
2018-04-07T16:02:08.948Z,22.20
2018-04-07T16:04:37.701Z,22.30
2018-04-07T16:07:05.205Z,22.30
2018-04-07T16:09:33.031Z,22.30
2018-04-07T16:12:00.484Z,22.30
2018-04-07T16:14:28.140Z,22.30
2018-04-07T16:16:55.584Z,22.40
2018-04-07T16:19:23.059Z,22.40
2018-04-07T16:21:50.444Z,22.40
2018-04-07T16:24:17.872Z,22.30
2018-04-07T16:26:45.293Z,22.30
2018-04-07T16:29:12.725Z,22.40
2018-04-07T16:31:40.144Z,22.40
2018-04-07T16:34:07.569Z,22.40
2018-04-07T16:36:34.992Z,22.40
2018-04-07T16:39:02.456Z,22.50
2018-04-07T16:41:30.272Z,22.30
2018-04-07T16:43:57.706Z,22.30
2018-04-07T16:46:25.126Z,22.30
2018-04-07T16:48:52.558Z,22.20
2018-04-07T16:51:19.980Z,22.20
2018-04-07T16:53:47.480Z,22.10
2018-04-07T16:56:14.927Z,22.10
2018-04-07T16:58:42.377Z,22.00
2018-04-07T17:01:09.800Z,22.00
2018-04-07T17:03:37.225Z,22.00
2018-04-07T17:06:05.077Z,21.80
2018-04-07T17:08:32.731Z,21.80
2018-04-07T17:11:00.164Z,21.70
2018-04-07T17:13:27.601Z,21.80
2018-04-07T17:15:55.057Z,21.70
2018-04-07T17:18:22.513Z,21.60
2018-04-07T17:20:49.969Z,21.50
2018-04-07T17:23:17.497Z,21.40
2018-04-07T17:25:45.344Z,21.20
2018-04-07T17:28:12.795Z,21.20
2018-04-07T17:30:40.254Z,21.20
2018-04-07T17:33:07.717Z,21.10
2018-04-07T17:35:35.173Z,20.90
2018-04-07T17:38:02.625Z,20.90
2018-04-07T17:40:30.078Z,20.80
2018-04-07T17:42:57.536Z,20.80
2018-04-07T17:45:24.981Z,20.80
2018-04-07T17:47:52.725Z,20.60
2018-04-07T17:50:20.449Z,20.60
2018-04-07T17:52:47.917Z,20.60
2018-04-07T17:55:15.366Z,20.40
2018-04-07T17:57:42.834Z,20.30
2018-04-07T18:00:10.278Z,20.30
2018-04-07T18:02:37.738Z,20.20
2018-04-07T18:05:05.297Z,20.10
2018-04-07T18:07:32.737Z,19.90
2018-04-07T18:10:00.589Z,19.70
2018-04-07T18:12:28.029Z,19.70
2018-04-07T18:14:55.476Z,19.60
2018-04-07T18:17:22.904Z,19.40
2018-04-07T18:19:50.340Z,19.30
2018-04-07T18:22:17.765Z,19.30
2018-04-07T18:24:45.205Z,19.30
2018-04-07T18:27:12.623Z,19.30
2018-04-07T18:29:40.096Z,19.20
2018-04-07T18:32:08.469Z,19.10
2018-04-07T18:34:35.900Z,19.00
2018-04-07T18:37:03.356Z,18.80
2018-04-07T18:39:31.198Z,18.50
2018-04-07T18:41:59.060Z,18.50
2018-04-07T18:44:26.525Z,18.50
2018-04-07T18:46:53.972Z,18.40
2018-04-07T18:49:22.340Z,18.30
2018-04-07T18:51:49.847Z,18.20
2018-04-07T18:54:18.076Z,18.00
2018-04-07T18:56:45.538Z,17.90
2018-04-07T18:59:13.030Z,17.90
2018-04-07T19:01:41.114Z,17.80
2018-04-07T19:04:08.552Z,17.70
2018-04-07T19:06:36.718Z,17.60
2018-04-07T19:09:05.915Z,17.60
2018-04-07T19:11:34.035Z,17.50
2018-04-07T19:14:01.592Z,17.40
2018-04-07T19:16:29.252Z,17.30
2018-04-07T19:18:57.487Z,17.30
2018-04-07T19:21:25.357Z,17.30
2018-04-07T19:23:52.851Z,17.20
2018-04-07T19:26:20.303Z,17.20
2018-04-07T19:28:47.764Z,17.30
2018-04-07T19:31:16.959Z,17.30
2018-04-07T19:33:44.432Z,17.30
2018-04-07T19:36:11.878Z,17.30
2018-04-07T19:38:39.593Z,17.00
2018-04-07T19:41:07.082Z,16.80
2018-04-07T19:43:34.541Z,16.60
2018-04-07T19:46:03.663Z,16.40
2018-04-07T19:48:31.925Z,16.40
2018-04-07T19:50:59.892Z,16.60
2018-04-07T19:53:27.868Z,16.40
2018-04-07T19:55:55.325Z,16.20
2018-04-07T19:58:23.792Z,16.30
2018-04-07T20:00:53.649Z,16.50
2018-04-07T20:03:23.288Z,16.30
2018-04-07T20:05:51.763Z,15.70
2018-04-07T20:08:20.780Z,15.50
2018-04-07T20:10:48.232Z,15.50
2018-04-07T20:13:15.727Z,15.20
2018-04-07T20:15:43.124Z,15.10
2018-04-07T20:18:11.046Z,15.00
2018-04-07T20:20:39.091Z,14.90
2018-04-07T20:23:06.528Z,14.80
2018-04-07T20:25:34.011Z,14.80
2018-04-07T20:28:01.474Z,14.70
2018-04-07T20:30:30.613Z,14.70
2018-04-07T20:32:58.064Z,14.60
2018-04-07T20:35:25.680Z,14.40
2018-04-07T20:37:58.024Z,14.40
2018-04-07T20:40:25.469Z,14.20
2018-04-07T20:42:53.362Z,13.90
2018-04-07T20:45:21.593Z,14.00
2018-04-07T20:47:53.035Z,13.90
2018-04-07T20:50:21.463Z,13.80
2018-04-07T20:52:48.903Z,13.70
2018-04-07T20:55:17.529Z,13.70
2018-04-07T20:57:44.990Z,13.70
2018-04-07T21:00:13.470Z,13.70
2018-04-07T21:02:42.047Z,13.50
2018-04-07T21:05:10.284Z,13.40
2018-04-07T21:07:38.122Z,13.20
2018-04-07T21:10:05.572Z,13.20
2018-04-07T21:12:34.480Z,13.30
2018-04-07T21:15:01.962Z,13.20
2018-04-07T21:17:32.642Z,13.20
2018-04-07T21:20:06.892Z,13.30
2018-04-07T21:22:35.236Z,13.60
2018-04-07T21:25:10.218Z,13.80
2018-04-07T21:27:47.085Z,13.70
2018-04-07T21:30:15.623Z,13.50
2018-04-07T21:32:50.508Z,13.30
2018-04-07T21:35:31.689Z,13.10
2018-04-07T21:40:37.839Z,12.70
2018-04-07T21:43:06.617Z,12.60
2018-04-07T21:45:36.264Z,12.50
2018-04-07T21:48:07.712Z,12.30
2018-04-07T21:50:39.718Z,12.30
2018-04-07T21:53:10.387Z,12.20
2018-04-07T21:55:46.738Z,12.10
2018-04-07T21:58:15.624Z,12.00
2018-04-07T22:00:50.314Z,11.90
2018-04-07T22:08:37.502Z,11.80
2018-04-07T22:11:08.513Z,11.80
2018-04-07T22:13:40.010Z,11.70
2018-04-07T22:16:13.359Z,11.70
2018-04-07T22:18:43.300Z,11.60
2018-04-07T22:21:13.196Z,11.50
2018-04-07T22:23:42.045Z,11.50
2018-04-07T22:26:11.527Z,11.50
2018-04-07T22:28:44.364Z,11.40
2018-04-07T22:31:16.200Z,11.40
2018-04-07T22:33:47.780Z,11.30
2018-04-07T22:36:18.429Z,11.20
2018-04-07T22:38:48.400Z,11.10
2018-04-07T22:41:16.815Z,11.10
2018-04-07T22:43:48.971Z,11.00
2018-04-07T22:46:23.082Z,11.00
2018-04-07T22:48:52.998Z,10.90
2018-04-07T22:51:20.560Z,10.90
2018-04-07T22:53:52.733Z,10.80
2018-04-07T22:56:20.177Z,10.70
2018-04-07T22:58:51.707Z,10.60
2018-04-07T23:01:20.428Z,10.50
2018-04-07T23:03:59.416Z,10.50
2018-04-07T23:09:05.010Z,10.40
2018-04-07T23:11:34.824Z,10.40
2018-04-07T23:14:03.250Z,10.40
2018-04-07T23:19:09.471Z,10.30
2018-04-07T23:21:42.863Z,10.20
2018-04-07T23:24:18.938Z,10.20
2018-04-07T23:29:33.738Z,10.10
2018-04-07T23:32:05.416Z,10.10
2018-04-07T23:34:37.335Z,10.00
2018-04-07T23:37:07.582Z,10.00
2018-04-07T23:39:36.296Z,10.00
2018-04-07T23:42:08.966Z,9.90
2018-04-07T23:44:44.288Z,9.90
2018-04-07T23:47:25.742Z,9.90
2018-04-07T23:52:36.170Z,9.80
2018-04-07T23:55:10.609Z,9.80
2018-04-07T23:57:39.852Z,9.80
